Aviation Digital Data Service (ADDS)

Output produced by METARs form (2250 UTC 25 October 2014)
found at http://www.aviationweather.gov/adds/metars/
 
KORD 252202Z 2522/2624 29015G23KT P6SM SKC 
     FM252330 29010KT P6SM SKC 
     FM260700 32007KT P6SM SKC 
     FM261300 VRB03KT P6SM FEW250 
     FM261900 16007KT P6SM FEW100